Time;durP1;ratioP1;P1;durP2;ratioP2;P2;SDS_P1;SDS_P2;PMS_P1;PMS_P2;Temp;Humidity;BMP_temperature;BMP_pressure;BME280_temperature;BME280_humidity;BME280_pressure;Samples;Min_cycle;Max_cycle;Signal;HPM_P1;HPM_P2
2021/09/26 00:00:24;;;;;;;1.50;0.90;;;;;;;11.58;74.97;98433.28;5068703;28;20086;-68
2021/09/26 00:02:50;;;;;;;1.05;0.80;;;;;;;11.58;74.75;98444.00;5057989;28;20107;-69
2021/09/26 00:05:16;;;;;;;1.23;1.00;;;;;;;11.54;75.03;98452.53;5063221;28;20147;-68
2021/09/26 00:07:41;;;;;;;2.13;0.90;;;;;;;11.53;75.35;98453.53;5066650;28;20052;-68
2021/09/26 00:10:10;;;;;;;2.60;1.10;;;;;;;11.55;75.25;98455.03;5056796;28;20123;-69
2021/09/26 00:12:36;;;;;;;1.65;0.95;;;;;;;11.57;75.24;98447.66;5067209;28;20036;-69
2021/09/26 00:15:05;;;;;;;1.00;0.60;;;;;;;11.63;75.00;98452.38;5060971;28;20035;-69
2021/09/26 00:17:31;;;;;;;0.88;0.77;;;;;;;11.63;75.22;98447.03;5060904;28;20025;-69
2021/09/26 00:19:57;;;;;;;1.17;0.80;;;;;;;11.67;74.67;98444.00;5068969;28;20037;-68
2021/09/26 00:22:23;;;;;;;1.88;1.00;;;;;;;11.66;75.02;98434.28;5054576;28;20086;-69
2021/09/26 00:24:49;;;;;;;0.90;0.90;;;;;;;11.65;75.16;98437.97;5066029;28;20021;-69
2021/09/26 00:27:15;;;;;;;1.30;0.90;;;;;;;11.49;74.92;98400.25;5063280;28;20044;-69
2021/09/26 00:29:41;;;;;;;1.60;1.13;;;;;;;11.70;74.70;98432.94;5059795;28;20040;-69
2021/09/26 00:32:08;;;;;;;1.45;0.82;;;;;;;11.55;75.13;98412.13;5068974;28;20480;-69
2021/09/26 00:34:34;;;;;;;0.95;0.80;;;;;;;11.62;75.07;98425.72;5055347;28;20081;-68
2021/09/26 00:37:00;;;;;;;1.73;0.70;;;;;;;11.67;74.72;98435.97;5063472;28;20017;-68
2021/09/26 00:39:26;;;;;;;1.15;0.80;;;;;;;11.62;74.72;98439.97;5062931;28;20040;-68
2021/09/26 00:41:52;;;;;;;0.68;0.68;;;;;;;11.66;74.86;98447.69;5056522;28;20032;-67
2021/09/26 00:44:18;;;;;;;0.85;0.70;;;;;;;11.61;74.61;98443.66;5050393;28;20112;-69
2021/09/26 00:46:43;;;;;;;1.80;0.70;;;;;;;11.67;74.46;98441.31;5056449;28;20029;-69
2021/09/26 00:49:09;;;;;;;1.42;0.70;;;;;;;11.66;74.45;98445.84;5061821;28;20029;-69
2021/09/26 00:51:35;;;;;;;1.55;0.70;;;;;;;11.63;74.59;98449.69;5064426;28;20031;-67
2021/09/26 00:54:01;;;;;;;0.70;0.70;;;;;;;11.60;74.34;98446.50;5056098;28;20044;-68
2021/09/26 00:56:29;;;;;;;0.60;0.60;;;;;;;11.62;74.87;98447.16;5067219;28;20366;-69
2021/09/26 00:58:58;;;;;;;1.55;0.52;;;;;;;11.38;74.94;98424.69;5041734;28;20033;-69
2021/09/26 01:01:23;;;;;;;2.35;0.60;;;;;;;11.52;74.79;98455.34;5060834;28;20044;-69
2021/09/26 01:03:49;;;;;;;0.65;0.55;;;;;;;11.45;74.48;98446.31;5064676;28;20407;-69
2021/09/26 01:06:37;;;;;;;1.63;0.60;;;;;;;11.61;74.87;98457.06;5055303;28;20056;-69
2021/09/26 01:09:32;;;;;;;0.82;0.50;;;;;;;11.46;74.71;98429.22;5063004;28;20073;-68
2021/09/26 01:12:20;;;;;;;1.33;0.73;;;;;;;11.58;74.39;98457.41;5067442;28;20048;-69
2021/09/26 01:15:07;;;;;;;0.82;0.60;;;;;;;11.72;74.33;98466.66;5042721;28;20409;-68
2021/09/26 01:18:01;;;;;;;1.38;0.77;;;;;;;11.72;74.29;98468.47;5058777;28;20067;-68
2021/09/26 01:20:51;;;;;;;1.33;1.02;;;;;;;11.74;74.04;98463.78;5067122;28;20037;-69
2021/09/26 01:23:28;;;;;;;1.27;1.17;;;;;;;11.60;73.99;98468.81;5061328;28;20044;-69
2021/09/26 01:26:01;;;;;;;1.73;1.52;;;;;;;11.64;73.88;98463.94;5055153;28;20029;-68
2021/09/26 01:29:16;;;;;;;2.17;1.50;;;;;;;11.69;74.27;98466.94;5068236;28;20064;-69
2021/09/26 01:31:49;;;;;;;2.05;1.70;;;;;;;11.60;73.60;98452.72;5065166;28;20486;-68
2021/09/26 01:34:23;;;;;;;1.70;1.60;;;;;;;11.57;73.91;98471.78;5054043;28;20465;-68
2021/09/26 01:36:55;;;;;;;2.28;1.75;;;;;;;11.49;73.81;98466.41;5047102;28;20033;-68
2021/09/26 01:39:29;;;;;;;1.67;1.25;;;;;;;11.50;73.59;98470.75;5061787;28;20117;-69
2021/09/26 01:42:01;;;;;;;6.07;2.70;;;;;;;11.33;73.84;98451.13;5055253;28;20358;-68
2021/09/26 01:44:36;;;;;;;2.50;2.28;;;;;;;11.41;73.78;98482.47;5067232;28;20028;-71
2021/09/26 01:47:04;;;;;;;3.63;3.22;;;;;;;11.41;74.02;98477.13;5059568;28;20044;-68
2021/09/26 01:49:35;;;;;;;4.20;2.92;;;;;;;11.23;74.06;98445.91;5057534;28;20029;-70
2021/09/26 01:52:01;;;;;;;4.97;3.33;;;;;;;11.37;74.01;98467.72;5065686;28;20028;-70
2021/09/26 01:54:28;;;;;;;3.92;3.17;;;;;;;11.40;74.41;98476.25;5053542;28;20025;-70
2021/09/26 01:56:55;;;;;;;4.10;3.22;;;;;;;11.44;74.02;98480.28;5063152;28;20025;-70
2021/09/26 01:59:22;;;;;;;5.85;3.58;;;;;;;11.44;74.16;98474.09;5061605;28;20115;-71
2021/09/26 02:01:48;;;;;;;3.85;3.10;;;;;;;11.44;74.24;98469.56;5054444;28;20037;-70
2021/09/26 02:04:18;;;;;;;2.47;2.20;;;;;;;11.48;73.99;98470.09;5067621;28;20526;-70
2021/09/26 02:06:44;;;;;;;3.10;2.15;;;;;;;11.39;73.96;98484.47;5057006;28;20052;-70
2021/09/26 02:09:12;;;;;;;4.05;2.53;;;;;;;11.32;74.06;98481.59;5060004;28;20515;-70
2021/09/26 02:11:40;;;;;;;3.45;1.85;;;;;;;11.26;74.25;98482.25;5062557;28;20302;-69
2021/09/26 02:14:06;;;;;;;2.67;1.70;;;;;;;11.26;74.37;98492.97;5053116;28;20465;-71
2021/09/26 02:16:35;;;;;;;1.83;1.70;;;;;;;11.26;74.35;98492.97;5048953;28;20021;-70
2021/09/26 02:19:02;;;;;;;1.30;1.20;;;;;;;11.19;74.23;98482.88;5058423;28;20484;-70
2021/09/26 02:21:30;;;;;;;1.52;1.35;;;;;;;11.21;74.34;98485.41;5059016;28;20465;-69
2021/09/26 02:23:56;;;;;;;1.25;1.15;;;;;;;11.28;73.92;98486.44;5064992;28;20048;-70
2021/09/26 02:26:22;;;;;;;1.45;1.30;;;;;;;11.32;73.71;98492.31;5054559;28;20072;-70
2021/09/26 02:28:48;;;;;;;1.52;1.30;;;;;;;11.18;73.47;98462.44;5064885;28;20025;-70
2021/09/26 02:31:13;;;;;;;2.72;1.15;;;;;;;11.36;72.95;98491.00;5060127;28;20476;-70
2021/09/26 02:33:40;;;;;;;0.90;0.80;;;;;;;11.36;72.93;98493.66;5057308;28;20250;-70
2021/09/26 02:36:07;;;;;;;0.75;0.68;;;;;;;11.40;72.78;98504.91;5065775;28;20048;-70
2021/09/26 02:38:34;;;;;;;1.23;0.80;;;;;;;11.32;72.90;98492.31;5053057;28;20480;-71
2021/09/26 02:41:35;;;;;;;0.75;0.68;;;;;;;11.48;73.38;98499.56;5044569;28;20025;-70
2021/09/26 02:44:07;;;;;;;1.13;0.68;;;;;;;11.27;73.27;98476.72;5065353;28;20036;-69
2021/09/26 02:46:40;;;;;;;1.95;0.50;;;;;;;11.38;73.28;98507.75;5038520;28;20468;-70
2021/09/26 02:49:06;;;;;;;2.05;0.70;;;;;;;11.15;73.98;98486.06;5061613;28;20037;-70
2021/09/26 02:51:33;;;;;;;0.50;0.40;;;;;;;11.22;73.96;98502.34;5062524;28;20104;-70
2021/09/26 02:54:01;;;;;;;0.50;0.40;;;;;;;11.00;73.88;98467.09;5052931;28;20053;-69
2021/09/26 02:56:27;;;;;;;0.30;0.30;;;;;;;11.13;73.94;98491.56;5048550;28;20074;-68
2021/09/26 02:58:54;;;;;;;0.77;0.45;;;;;;;11.17;74.27;98498.28;5057688;28;20059;-71
2021/09/26 03:01:21;;;;;;;1.45;0.35;;;;;;;11.16;73.92;98514.53;5041648;28;20033;-71
2021/09/26 03:03:47;;;;;;;1.65;0.40;;;;;;;11.10;74.46;98515.19;5064469;28;20025;-70
2021/09/26 03:06:12;;;;;;;1.35;0.40;;;;;;;11.04;74.40;98504.06;5053380;28;20025;-70
2021/09/26 03:08:38;;;;;;;1.25;0.30;;;;;;;11.06;74.31;98514.66;5064088;28;20033;-71
2021/09/26 03:11:03;;;;;;;0.40;0.38;;;;;;;10.99;74.68;98508.25;5058375;28;20480;-69
2021/09/26 03:13:29;;;;;;;0.88;0.35;;;;;;;11.00;74.69;98507.25;5057465;28;20115;-70
2021/09/26 03:15:55;;;;;;;0.45;0.30;;;;;;;10.99;74.59;98510.94;5069459;28;20085;-69
2021/09/26 03:18:21;;;;;;;0.40;0.40;;;;;;;11.02;74.62;98513.28;5039928;28;20124;-69
2021/09/26 03:20:47;;;;;;;0.40;0.40;;;;;;;10.82;74.50;98484.06;5067860;28;20099;-69
2021/09/26 03:23:12;;;;;;;0.55;0.40;;;;;;;10.96;74.30;98514.75;5062097;28;20036;-69
2021/09/26 03:25:39;;;;;;;1.02;0.50;;;;;;;11.00;74.42;98521.47;5060581;28;20068;-69
2021/09/26 03:28:05;;;;;;;0.43;0.40;;;;;;;10.97;74.62;98503.03;5069163;28;20189;-70
2021/09/26 03:30:31;;;;;;;1.08;0.32;;;;;;;10.79;74.33;98481.69;5056264;28;20036;-69
2021/09/26 03:32:57;;;;;;;0.38;0.38;;;;;;;11.00;74.04;98520.66;5065214;28;20025;-69
2021/09/26 03:35:23;;;;;;;0.80;0.50;;;;;;;10.98;73.82;98518.13;5063173;28;20078;-68
2021/09/26 03:37:49;;;;;;;0.90;0.50;;;;;;;10.97;73.97;98513.75;5057874;28;20461;-68
2021/09/26 03:40:15;;;;;;;0.68;0.52;;;;;;;10.99;73.90;98509.06;5069029;28;20442;-68
2021/09/26 03:42:41;;;;;;;0.95;0.60;;;;;;;11.00;73.74;98510.75;5058799;28;20036;-69
2021/09/26 03:45:07;;;;;;;1.00;0.50;;;;;;;11.00;73.80;98524.16;5064928;28;20101;-68
2021/09/26 03:47:33;;;;;;;0.30;0.30;;;;;;;11.06;73.75;98520.00;5064619;28;20052;-69
2021/09/26 03:49:59;;;;;;;0.50;0.50;;;;;;;11.10;73.63;98518.69;5056413;28;20052;-70
2021/09/26 03:52:24;;;;;;;0.70;0.60;;;;;;;11.09;73.20;98513.47;5052268;28;20036;-69
2021/09/26 03:54:51;;;;;;;0.50;0.50;;;;;;;11.14;73.29;98521.88;5058661;28;20032;-69
2021/09/26 03:57:20;;;;;;;2.83;0.50;;;;;;;11.16;72.96;98523.38;5063039;28;20029;-71
2021/09/26 03:59:46;;;;;;;1.23;0.70;;;;;;;11.15;73.13;98528.94;5067685;28;20443;-69
2021/09/26 04:02:11;;;;;;;1.48;0.60;;;;;;;11.08;73.29;98527.84;5055858;28;20052;-69
2021/09/26 04:04:37;;;;;;;0.70;0.70;;;;;;;10.87;73.23;98489.75;5066613;28;20461;-71
2021/09/26 04:07:03;;;;;;;1.70;0.50;;;;;;;11.11;72.94;98532.94;5059816;28;20476;-68
2021/09/26 04:09:28;;;;;;;1.10;0.70;;;;;;;11.06;73.06;98520.81;5043126;28;20139;-69
2021/09/26 04:11:54;;;;;;;0.85;0.75;;;;;;;11.12;73.28;98539.97;5068634;28;20410;-71
2021/09/26 04:14:19;;;;;;;0.88;0.60;;;;;;;11.12;73.11;98546.16;5055433;28;20169;-69
2021/09/26 04:16:49;;;;;;;1.00;0.70;;;;;;;11.16;72.47;98546.69;5064696;28;20036;-69
2021/09/26 04:19:15;;;;;;;1.98;0.70;;;;;;;11.01;72.30;98512.44;5062551;28;20048;-70
2021/09/26 04:21:40;;;;;;;2.17;0.77;;;;;;;11.16;71.97;98536.78;5066680;28;20032;-70
2021/09/26 04:24:06;;;;;;;1.52;0.70;;;;;;;11.20;71.98;98542.66;5055710;28;20041;-70
2021/09/26 04:26:31;;;;;;;0.90;0.70;;;;;;;10.96;72.21;98512.06;5067210;28;20029;-69
2021/09/26 04:28:57;;;;;;;0.95;0.68;;;;;;;11.19;72.28;98551.72;5060400;28;20314;-69
2021/09/26 04:31:22;;;;;;;4.43;0.93;;;;;;;11.22;72.19;98548.72;5062035;28;20037;-69
2021/09/26 04:33:48;;;;;;;5.18;0.80;;;;;;;11.26;72.03;98551.91;5066745;28;20024;-69
2021/09/26 04:36:13;;;;;;;1.08;0.80;;;;;;;11.31;71.50;98550.41;5068576;28;20036;-70
2021/09/26 04:38:39;;;;;;;1.42;0.75;;;;;;;11.35;71.65;98550.94;5040058;28;20020;-69
2021/09/26 04:41:04;;;;;;;2.35;0.93;;;;;;;11.36;71.50;98559.84;5062836;28;20025;-69
2021/09/26 04:43:30;;;;;;;2.05;0.80;;;;;;;11.09;71.43;98518.81;5063767;28;20063;-69
2021/09/26 04:45:55;;;;;;;1.00;0.90;;;;;;;11.17;71.68;98534.97;5038692;28;20457;-68
2021/09/26 04:48:21;;;;;;;1.48;0.75;;;;;;;11.36;71.76;98562.53;5069063;28;20082;-68
2021/09/26 04:50:46;;;;;;;1.08;0.63;;;;;;;11.36;71.01;98554.47;5058157;28;20032;-69
2021/09/26 04:53:13;;;;;;;1.73;0.88;;;;;;;11.43;71.13;98569.72;5061939;28;20057;-69
2021/09/26 04:55:38;;;;;;;0.90;0.80;;;;;;;11.43;70.72;98568.91;5064970;28;20031;-68
2021/09/26 04:58:06;;;;;;;1.00;0.88;;;;;;;11.42;71.44;98561.88;5054276;28;20029;-68
2021/09/26 05:00:33;;;;;;;0.63;0.60;;;;;;;11.48;71.64;98574.63;5070872;28;20040;-69
2021/09/26 05:02:59;;;;;;;2.58;0.80;;;;;;;11.39;71.53;98570.25;5062840;28;20029;-68
2021/09/26 05:05:24;;;;;;;1.42;0.60;;;;;;;11.45;71.47;98578.47;5063085;28;20040;-69
2021/09/26 05:07:50;;;;;;;1.17;0.70;;;;;;;11.48;71.10;98574.63;5055483;28;20118;-68
2021/09/26 05:10:15;;;;;;;0.93;0.80;;;;;;;11.48;71.03;98571.94;5066784;28;20502;-68
2021/09/26 05:12:41;;;;;;;1.08;0.70;;;;;;;11.55;70.62;98582.88;5055797;28;20028;-68
2021/09/26 05:15:07;;;;;;;1.17;0.82;;;;;;;11.50;71.45;98591.38;5063021;28;20436;-70
2021/09/26 05:17:33;;;;;;;1.17;0.90;;;;;;;11.41;71.12;98571.75;5045714;28;20028;-68
2021/09/26 05:19:59;;;;;;;0.77;0.70;;;;;;;11.46;70.85;98584.66;5038294;28;20025;-69
2021/09/26 05:22:25;;;;;;;3.38;0.80;;;;;;;11.23;71.16;98550.38;5050331;28;20027;-68
2021/09/26 05:24:50;;;;;;;0.80;0.65;;;;;;;11.48;71.14;98591.56;5050995;28;20073;-69
2021/09/26 05:27:16;;;;;;;0.95;0.77;;;;;;;11.48;71.25;98588.88;5062140;28;20033;-69
2021/09/26 05:29:43;;;;;;;0.82;0.63;;;;;;;11.54;71.20;98591.91;5064098;28;20471;-69
2021/09/26 05:32:09;;;;;;;1.30;0.90;;;;;;;11.57;71.18;98594.25;5053141;28;20025;-70
2021/09/26 05:34:35;;;;;;;1.23;0.77;;;;;;;11.56;71.32;98588.06;5068787;28;20020;-69
2021/09/26 05:37:01;;;;;;;1.60;0.60;;;;;;;11.62;70.89;98599.97;5063463;28;20040;-69
2021/09/26 05:39:27;;;;;;;0.90;0.80;;;;;;;11.71;70.65;98603.53;5062740;28;20032;-72
2021/09/26 05:41:53;;;;;;;1.80;1.08;;;;;;;11.67;71.12;98603.00;5038498;28;20098;-68
2021/09/26 05:44:19;;;;;;;0.85;0.60;;;;;;;11.66;71.03;98606.69;5067424;28;20047;-67
2021/09/26 05:46:44;;;;;;;0.60;0.52;;;;;;;11.66;71.28;98600.50;5056209;28;20028;-69
2021/09/26 05:49:10;;;;;;;0.52;0.52;;;;;;;11.66;70.95;98605.88;5061903;28;20025;-69
2021/09/26 05:51:36;;;;;;;0.73;0.50;;;;;;;11.71;70.98;98611.59;5063654;28;20033;-70
2021/09/26 05:54:02;;;;;;;0.60;0.32;;;;;;;11.59;71.21;98582.41;5053747;28;20052;-70
2021/09/26 05:56:27;;;;;;;1.65;0.60;;;;;;;11.61;70.30;98569.66;5066392;28;20035;-69
2021/09/26 05:58:53;;;;;;;0.63;0.50;;;;;;;11.99;70.01;98624.75;5039938;28;20111;-69
2021/09/26 06:01:18;;;;;;;0.85;0.60;;;;;;;11.96;69.76;98617.03;5060775;28;20194;-69
2021/09/26 06:03:44;;;;;;;3.17;0.63;;;;;;;11.91;69.53;98631.78;5063462;28;20525;-68
2021/09/26 06:06:09;;;;;;;1.50;0.60;;;;;;;11.88;70.14;98633.94;5054393;28;20029;-69
2021/09/26 06:08:35;;;;;;;1.15;0.70;;;;;;;11.85;70.67;98634.25;5066375;28;20098;-68
2021/09/26 06:11:01;;;;;;;0.70;0.50;;;;;;;11.89;70.74;98640.97;5058568;28;20134;-70
2021/09/26 06:13:26;;;;;;;1.58;0.70;;;;;;;11.94;70.73;98627.94;5059754;28;20052;-71
2021/09/26 06:15:52;;;;;;;1.70;0.75;;;;;;;12.06;70.23;98647.28;5055926;28;20481;-69
2021/09/26 06:18:18;;;;;;;0.70;0.55;;;;;;;12.09;69.88;98644.28;5064507;28;20142;-71
2021/09/26 06:20:45;;;;;;;0.63;0.63;;;;;;;11.92;69.58;98627.22;5054782;28;20035;-69
2021/09/26 06:23:11;;;;;;;3.08;0.93;;;;;;;12.04;69.93;98657.31;5061533;28;20033;-71
2021/09/26 06:25:37;;;;;;;0.80;0.70;;;;;;;12.09;69.63;98648.78;5062553;28;20043;-69
2021/09/26 06:28:03;;;;;;;1.10;0.77;;;;;;;12.24;68.96;98657.06;5054278;28;20032;-68
2021/09/26 06:30:28;;;;;;;1.98;1.00;;;;;;;12.40;68.25;98666.97;5037583;28;20025;-71
2021/09/26 06:32:54;;;;;;;1.15;0.80;;;;;;;12.57;67.37;98668.72;5062515;28;20024;-70
2021/09/26 06:35:19;;;;;;;2.45;0.70;;;;;;;12.68;67.23;98656.81;5061564;28;20027;-70
2021/09/26 06:37:45;;;;;;;1.38;0.55;;;;;;;13.03;65.55;98676.31;5054884;28;20025;-70
2021/09/26 06:40:11;;;;;;;0.80;0.60;;;;;;;13.23;64.94;98677.81;5066076;28;20103;-70
2021/09/26 06:42:36;;;;;;;0.80;0.50;;;;;;;13.49;64.65;98672.22;5034697;28;20070;-70
2021/09/26 06:45:03;;;;;;;2.42;0.68;;;;;;;13.43;63.21;98644.22;5045210;28;20361;-71
2021/09/26 06:47:28;;;;;;;0.73;0.70;;;;;;;13.52;62.66;98677.28;5057284;28;20044;-70
2021/09/26 06:49:54;;;;;;;0.77;0.70;;;;;;;13.43;63.74;98675.63;5067919;28;20028;-68
2021/09/26 06:52:19;;;;;;;2.97;0.90;;;;;;;13.16;63.85;98645.38;5057659;28;20056;-69
2021/09/26 06:54:45;;;;;;;1.00;0.82;;;;;;;13.38;64.21;98689.53;5068660;28;20025;-70
2021/09/26 06:57:10;;;;;;;2.08;0.88;;;;;;;13.47;63.58;98688.56;5063516;28;20040;-70
2021/09/26 06:59:37;;;;;;;3.47;0.82;;;;;;;13.77;63.05;98690.69;5060445;28;20105;-70
2021/09/26 07:02:03;;;;;;;3.67;1.05;;;;;;;13.89;62.55;98689.28;5069608;28;20032;-69
2021/09/26 07:04:29;;;;;;;3.30;0.88;;;;;;;13.95;61.86;98689.59;5040539;28;20033;-68
2021/09/26 07:06:54;;;;;;;3.47;0.82;;;;;;;13.94;62.66;98678.00;5049297;28;20043;-68
2021/09/26 07:09:20;;;;;;;2.00;1.10;;;;;;;13.92;62.21;98677.34;5064307;28;20040;-69
2021/09/26 07:11:45;;;;;;;0.93;0.82;;;;;;;13.76;62.25;98699.75;5058217;28;20036;-68
2021/09/26 07:14:11;;;;;;;1.50;1.00;;;;;;;13.51;63.58;98707.88;5069359;28;20051;-70
2021/09/26 07:16:37;;;;;;;1.10;0.70;;;;;;;13.43;63.52;98702.50;5040725;28;20473;-70
2021/09/26 07:19:03;;;;;;;0.82;0.68;;;;;;;13.37;63.73;98709.34;5065208;28;20025;-70
2021/09/26 07:21:28;;;;;;;1.02;0.70;;;;;;;13.23;64.06;98710.88;5065544;28;20127;-69
2021/09/26 07:23:54;;;;;;;2.75;0.60;;;;;;;13.22;65.06;98717.25;5058743;28;20029;-71
2021/09/26 07:26:19;;;;;;;1.50;0.68;;;;;;;13.26;64.64;98710.56;5054951;28;20044;-69
2021/09/26 07:28:45;;;;;;;1.23;0.90;;;;;;;13.41;63.97;98718.78;5067945;28;20028;-70
2021/09/26 07:31:10;;;;;;;0.55;0.50;;;;;;;13.53;63.91;98724.69;5053588;28;20078;-68
2021/09/26 07:33:36;;;;;;;1.45;0.50;;;;;;;13.52;63.30;98719.47;5066047;28;20033;-70
2021/09/26 07:36:02;;;;;;;1.15;0.70;;;;;;;13.48;63.75;98724.34;5070494;28;20032;-70
2021/09/26 07:38:27;;;;;;;1.60;0.77;;;;;;;13.49;63.06;98734.06;5057152;28;20028;-71
2021/09/26 07:40:53;;;;;;;2.78;0.90;;;;;;;13.24;63.29;98701.81;5065634;28;20032;-70
2021/09/26 07:43:18;;;;;;;1.60;0.70;;;;;;;13.31;63.39;98731.53;5064137;28;20021;-65
2021/09/26 07:45:44;;;;;;;1.15;0.63;;;;;;;13.29;63.77;98747.88;5057386;28;20366;-72
2021/09/26 07:48:09;;;;;;;2.03;0.68;;;;;;;13.24;64.13;98749.38;5052124;28;20032;-71
2021/09/26 07:50:35;;;;;;;1.00;0.88;;;;;;;13.23;63.92;98750.38;5057789;28;20029;-71
2021/09/26 07:53:00;;;;;;;2.22;1.00;;;;;;;13.28;64.27;98746.19;5065080;28;20027;-70
2021/09/26 07:55:26;;;;;;;1.20;1.10;;;;;;;13.34;64.08;98750.88;5064223;28;20085;-72
2021/09/26 07:57:52;;;;;;;2.83;1.08;;;;;;;13.37;64.36;98754.22;5056988;28;20051;-70
2021/09/26 08:00:18;;;;;;;3.53;0.90;;;;;;;13.48;63.19;98767.34;5069882;28;20033;-72
2021/09/26 08:02:44;;;;;;;1.40;1.00;;;;;;;13.43;64.00;98767.03;5057473;28;20544;-71
2021/09/26 08:05:10;;;;;;;1.48;1.00;;;;;;;13.35;64.59;98774.06;5063138;28;20107;-70
2021/09/26 08:07:36;;;;;;;1.85;1.00;;;;;;;13.28;65.05;98782.97;5064080;28;20060;-71
2021/09/26 08:10:04;;;;;;;2.25;1.30;;;;;;;12.55;65.24;98675.25;5056512;28;20048;-74
2021/09/26 08:12:30;;;;;;;3.55;1.20;;;;;;;13.06;65.50;98785.28;5040453;28;20051;-70
2021/09/26 08:14:55;;;;;;;1.48;1.10;;;;;;;12.88;66.47;98766.63;5065809;28;20159;-74
2021/09/26 08:17:21;;;;;;;1.42;1.20;;;;;;;12.72;66.46;98749.44;5063485;28;20468;-69
2021/09/26 08:19:46;;;;;;;1.98;1.15;;;;;;;12.97;66.07;98781.75;5058767;28;20028;-70
2021/09/26 08:22:12;;;;;;;1.50;1.20;;;;;;;12.99;65.42;98792.34;5069408;28;20033;-70
2021/09/26 08:24:38;;;;;;;1.52;1.20;;;;;;;12.96;65.89;98803.41;5055437;28;20028;-70
2021/09/26 08:27:04;;;;;;;1.52;1.30;;;;;;;12.87;65.75;98807.94;5062579;28;20029;-69
2021/09/26 08:29:30;;;;;;;0.90;0.80;;;;;;;12.77;66.58;98803.50;5063902;28;20119;-73
2021/09/26 08:31:56;;;;;;;2.45;1.02;;;;;;;12.79;65.69;98816.78;5038802;28;20025;-69
2021/09/26 08:34:22;;;;;;;1.80;1.00;;;;;;;12.59;65.85;98779.47;5068656;28;20025;-70
2021/09/26 08:36:48;;;;;;;1.27;1.08;;;;;;;12.88;65.35;98809.59;5065502;28;20357;-69
2021/09/26 08:39:14;;;;;;;2.33;1.02;;;;;;;13.17;65.13;98809.16;5059353;28;20082;-71
2021/09/26 08:41:40;;;;;;;2.08;1.40;;;;;;;13.49;63.28;98812.91;5057118;28;20040;-68
2021/09/26 08:44:06;;;;;;;1.42;1.00;;;;;;;13.83;62.68;98824.50;5049044;28;20183;-63
2021/09/26 08:46:31;;;;;;;1.63;1.13;;;;;;;14.09;61.42;98822.59;5050781;28;20310;-64
2021/09/26 08:48:57;;;;;;;1.27;1.00;;;;;;;14.24;60.87;98828.13;5052394;28;20060;-67
2021/09/26 08:51:23;;;;;;;2.00;1.10;;;;;;;14.35;60.41;98825.06;5052425;28;20059;-70
2021/09/26 08:53:49;;;;;;;1.63;0.90;;;;;;;14.09;59.73;98801.06;5052949;28;20041;-67
2021/09/26 08:56:17;;;;;;;4.60;1.00;;;;;;;14.20;60.34;98844.59;5051586;28;20104;-69
2021/09/26 08:58:43;;;;;;;1.23;1.13;;;;;;;14.09;60.52;98839.59;5051904;28;20032;-67
2021/09/26 09:01:08;;;;;;;1.40;1.10;;;;;;;14.09;60.73;98842.28;5052326;28;20040;-70
2021/09/26 09:03:37;;;;;;;2.10;1.10;;;;;;;14.10;60.49;98835.91;5050743;28;20028;-72
2021/09/26 09:06:02;;;;;;;1.33;1.15;;;;;;;14.19;60.35;98848.31;5033697;28;20059;-70
2021/09/26 09:08:28;;;;;;;1.33;1.23;;;;;;;14.20;60.72;98819.56;5052447;28;20036;-74
2021/09/26 09:10:57;;;;;;;2.10;1.23;;;;;;;14.47;60.04;98845.25;5034200;28;20049;-68
2021/09/26 09:13:37;;;;;;;1.00;0.88;;;;;;;14.65;59.48;98844.13;5051173;28;20036;-68
2021/09/26 09:16:05;;;;;;;1.75;1.20;;;;;;;14.69;58.75;98847.34;5050512;28;20236;-66
2021/09/26 09:18:52;;;;;;;3.22;1.17;;;;;;;14.70;58.84;98862.47;5051170;28;20124;-70
2021/09/26 09:21:17;;;;;;;3.55;1.83;;;;;;;14.52;59.00;98865.41;5050169;28;20164;-67
2021/09/26 09:23:43;;;;;;;7.00;4.28;;;;;;;14.39;58.32;98858.72;5050783;28;20040;-70
2021/09/26 09:26:09;;;;;;;7.47;4.38;;;;;;;14.11;57.94;98861.78;5052024;28;20036;-66
2021/09/26 09:28:39;;;;;;;3.45;2.63;;;;;;;13.93;58.44;98852.06;5050465;28;20041;-68
2021/09/26 09:31:06;;;;;;;2.70;1.38;;;;;;;13.97;58.63;98867.84;5051328;28;20025;-71
2021/09/26 09:34:04;;;;;;;3.13;1.50;;;;;;;14.18;59.38;98875.41;5051590;28;20028;-69
2021/09/26 09:36:31;;;;;;;2.65;1.00;;;;;;;14.20;58.36;98868.84;5050034;28;20068;-70
2021/09/26 09:39:04;;;;;;;1.58;0.90;;;;;;;14.41;57.83;98880.09;5051801;28;20040;-69
2021/09/26 09:41:43;;;;;;;2.50;0.80;;;;;;;14.80;57.50;98870.41;5051375;28;20029;-68
2021/09/26 09:44:10;;;;;;;2.90;1.10;;;;;;;15.15;56.09;98865.50;5033711;28;20037;-69
2021/09/26 09:46:42;;;;;;;2.33;1.10;;;;;;;15.55;54.84;98874.34;5050487;28;20033;-71
2021/09/26 09:49:19;;;;;;;1.20;0.80;;;;;;;15.87;54.18;98875.09;5033239;28;20120;-71
2021/09/26 09:51:51;;;;;;;0.90;0.60;;;;;;;16.14;52.71;98880.13;5050814;28;20045;-71
2021/09/26 09:54:52;;;;;;;0.88;0.77;;;;;;;16.37;53.25;98874.66;5049719;28;20111;-71
2021/09/26 09:57:25;;;;;;;0.80;0.70;;;;;;;16.08;51.23;98822.31;5051491;28;20045;-71
2021/09/26 09:59:51;;;;;;;0.70;0.60;;;;;;;16.12;51.37;98850.59;5051076;28;20086;-70
2021/09/26 10:02:16;;;;;;;1.13;0.80;;;;;;;16.16;52.49;98878.94;5050039;28;20032;-72
2021/09/26 10:04:47;;;;;;;1.40;0.75;;;;;;;16.00;53.95;98887.19;5051079;28;20108;-70
2021/09/26 10:07:27;;;;;;;1.83;0.70;;;;;;;15.53;55.51;98862.91;5050815;28;20106;-74
2021/09/26 10:09:54;;;;;;;0.65;0.60;;;;;;;15.24;56.11;98896.81;5049779;28;20033;-70
2021/09/26 10:12:31;;;;;;;1.30;0.80;;;;;;;14.82;57.56;98895.31;5050002;28;20079;-70
2021/09/26 10:14:59;;;;;;;0.80;0.80;;;;;;;14.42;58.81;98909.53;5033675;28;20607;-69
2021/09/26 10:17:26;;;;;;;2.42;0.80;;;;;;;14.25;59.65;98908.72;5051762;28;20029;-66
2021/09/26 10:19:52;;;;;;;4.18;0.95;;;;;;;14.05;59.72;98902.84;5050804;28;20572;-70
2021/09/26 10:22:18;;;;;;;2.40;0.90;;;;;;;13.98;60.01;98894.63;5049601;28;20033;-71
2021/09/26 10:24:47;;;;;;;0.73;0.60;;;;;;;14.10;59.09;98922.03;5049673;28;20107;-62
2021/09/26 10:27:14;;;;;;;0.77;0.70;;;;;;;14.20;58.37;98919.97;5050998;28;20028;-64
2021/09/26 10:29:43;;;;;;;0.75;0.63;;;;;;;14.27;58.28;98932.78;5050721;28;20136;-63
2021/09/26 10:32:10;;;;;;;2.28;0.57;;;;;;;14.34;58.51;98939.16;5050741;28;20033;-68
2021/09/26 10:34:37;;;;;;;2.75;0.85;;;;;;;14.60;57.86;98936.28;5051252;28;20025;-71
2021/09/26 10:37:06;;;;;;;0.70;0.63;;;;;;;14.95;56.24;98933.34;5050573;28;20029;-72
2021/09/26 10:39:32;;;;;;;1.77;0.60;;;;;;;15.18;54.82;98932.53;5050031;28;20040;-69
2021/09/26 10:42:14;;;;;;;0.65;0.47;;;;;;;15.41;54.62;98939.84;5033264;28;20028;-71
2021/09/26 10:44:52;;;;;;;1.27;0.63;;;;;;;15.27;54.51;98907.22;5049553;28;20039;-69
2021/09/26 10:47:26;;;;;;;1.15;0.70;;;;;;;15.49;54.59;98937.13;5049619;28;20078;-68
2021/09/26 10:50:01;;;;;;;1.08;0.65;;;;;;;15.45;55.06;98954.69;5051172;28;20028;-68
2021/09/26 10:52:33;;;;;;;1.30;1.03;;;;;;;15.25;54.78;98943.47;5033017;28;20143;-67
2021/09/26 10:55:24;;;;;;;3.42;0.90;;;;;;;15.12;54.73;98954.81;5033030;28;20274;-68
2021/09/26 10:58:09;;;;;;;1.73;0.70;;;;;;;14.84;56.49;98950.72;5033265;28;20053;-69
2021/09/26 11:00:54;;;;;;;1.15;0.70;;;;;;;14.55;56.38;98962.03;5032045;28;20115;-69
2021/09/26 11:03:40;;;;;;;2.63;0.60;;;;;;;14.71;57.00;98964.72;5050433;28;20025;-70
2021/09/26 11:06:22;;;;;;;1.00;0.80;;;;;;;14.84;56.70;98957.94;5032337;28;20396;-71
2021/09/26 11:08:57;;;;;;;0.98;0.55;;;;;;;15.03;55.61;98973.72;5048931;28;20117;-69
2021/09/26 11:11:35;;;;;;;0.95;0.60;;;;;;;15.27;54.72;98982.72;5032452;28;20040;-70
2021/09/26 11:14:02;;;;;;;0.50;0.43;;;;;;;15.29;54.64;98963.66;5049308;28;20438;-70
2021/09/26 11:16:54;;;;;;;1.35;0.50;;;;;;;15.41;54.67;98946.09;5032317;28;20028;-69
2021/09/26 11:19:21;;;;;;;2.30;0.90;;;;;;;15.11;55.49;98955.84;5048866;28;20489;-68
2021/09/26 11:22:14;;;;;;;0.77;0.63;;;;;;;15.00;56.44;98992.94;5032304;28;20029;-64
2021/09/26 11:24:42;;;;;;;1.63;0.68;;;;;;;14.68;57.93;99000.03;5049869;28;20138;-68
2021/09/26 11:27:22;;;;;;;1.13;0.65;;;;;;;14.52;58.89;99008.16;5048560;28;20024;-76
2021/09/26 11:29:48;;;;;;;1.50;0.77;;;;;;;14.30;59.59;99007.84;5048997;28;20045;-73
2021/09/26 11:32:23;;;;;;;2.97;0.80;;;;;;;14.21;60.14;99020.44;5032739;28;20051;-66
2021/09/26 11:34:52;;;;;;;1.80;0.93;;;;;;;13.91;60.62;99015.53;5050232;28;20029;-67
2021/09/26 11:37:38;;;;;;;2.88;0.82;;;;;;;13.71;61.52;99015.00;5035518;28;20503;-68
2021/09/26 11:40:13;;;;;;;1.00;0.52;;;;;;;13.63;61.35;99007.72;5035964;28;20044;-65